createdAt,value
2023-05-13T00:00:36.298Z,99.90
2023-05-13T00:03:04.659Z,99.90
2023-05-13T00:05:32.680Z,99.90
2023-05-13T00:08:02.084Z,99.90
2023-05-13T00:10:30.245Z,99.90
2023-05-13T00:12:58.416Z,99.90
2023-05-13T00:15:26.428Z,99.90
2023-05-13T00:17:55.751Z,99.90
2023-05-13T00:20:23.935Z,99.90
2023-05-13T00:22:51.865Z,99.90
2023-05-13T00:25:19.980Z,99.90
2023-05-13T00:27:47.912Z,99.90
2023-05-13T00:30:15.962Z,99.90
2023-05-13T00:32:43.852Z,99.90
2023-05-13T00:35:13.511Z,99.90
2023-05-13T00:37:41.516Z,99.90
2023-05-13T00:40:20.518Z,99.90
2023-05-13T00:42:48.545Z,99.90
2023-05-13T00:45:16.706Z,99.90
2023-05-13T00:47:45.281Z,99.90
2023-05-13T00:50:15.538Z,99.90
2023-05-13T00:52:44.318Z,99.90
2023-05-13T00:55:12.776Z,99.90
2023-05-13T00:57:41.126Z,99.90
2023-05-13T01:00:10.468Z,99.90
2023-05-13T01:02:43.824Z,99.90
2023-05-13T01:05:22.055Z,99.90
2023-05-13T01:07:58.893Z,99.90
2023-05-13T01:10:36.001Z,99.90
2023-05-13T01:13:10.772Z,99.90
2023-05-13T01:15:42.443Z,99.90
2023-05-13T01:18:20.181Z,99.90
2023-05-13T01:20:49.868Z,99.90
2023-05-13T01:23:19.213Z,99.90
2023-05-13T01:25:47.859Z,99.90
2023-05-13T01:28:16.349Z,99.90
2023-05-13T01:30:50.608Z,99.90
2023-05-13T01:33:19.803Z,99.90
2023-05-13T01:35:48.728Z,99.90
2023-05-13T01:38:21.300Z,99.90
2023-05-13T01:40:52.733Z,99.90
2023-05-13T01:43:20.760Z,99.90
2023-05-13T01:45:48.717Z,99.90
2023-05-13T01:48:18.859Z,99.90
2023-05-13T01:50:49.244Z,99.90
2023-05-13T01:53:17.190Z,99.90
2023-05-13T01:55:47.288Z,99.90
2023-05-13T01:58:15.388Z,99.90
2023-05-13T02:00:43.333Z,99.90
2023-05-13T02:03:11.311Z,99.90
2023-05-13T02:05:39.358Z,99.90
2023-05-13T02:08:09.445Z,99.90
2023-05-13T02:10:39.696Z,99.90
2023-05-13T02:13:08.925Z,99.90
2023-05-13T02:15:36.872Z,99.90
2023-05-13T02:18:06.469Z,99.90
2023-05-13T02:20:34.644Z,99.90
2023-05-13T02:23:02.831Z,99.90
2023-05-13T02:25:31.001Z,99.90
2023-05-13T02:28:00.632Z,99.90
2023-05-13T02:30:30.557Z,99.90
2023-05-13T02:32:59.337Z,99.90
2023-05-13T02:35:29.726Z,99.90
2023-05-13T02:37:58.760Z,99.90
2023-05-13T02:40:27.550Z,99.90
2023-05-13T02:42:55.908Z,99.90
2023-05-13T02:45:34.304Z,99.90
2023-05-13T02:48:02.439Z,99.90
2023-05-13T02:50:30.713Z,99.90
2023-05-13T02:52:59.044Z,99.90
2023-05-13T02:55:27.303Z,99.90
2023-05-13T02:57:56.740Z,99.90
2023-05-13T03:00:24.841Z,99.90
2023-05-13T03:02:54.198Z,99.90
2023-05-13T03:05:22.196Z,99.90
2023-05-13T03:07:50.062Z,99.90
2023-05-13T03:10:18.132Z,99.90
2023-05-13T03:12:46.935Z,99.90
2023-05-13T03:15:16.345Z,99.90
2023-05-13T03:17:45.520Z,99.90
2023-05-13T03:20:15.325Z,99.90
2023-05-13T03:22:43.818Z,99.90
2023-05-13T03:25:12.590Z,99.90
2023-05-13T03:27:51.655Z,99.90
2023-05-13T03:30:22.807Z,99.90
2023-05-13T03:33:03.891Z,99.90
2023-05-13T03:35:33.605Z,99.90
2023-05-13T03:38:01.876Z,99.90
2023-05-13T03:40:30.023Z,99.90
2023-05-13T03:42:57.890Z,99.90
2023-05-13T03:45:25.950Z,99.90
2023-05-13T03:47:58.128Z,99.90
2023-05-13T03:50:26.510Z,99.90
2023-05-13T03:52:56.864Z,99.90
2023-05-13T03:55:25.494Z,99.90
2023-05-13T03:57:53.352Z,99.90
2023-05-13T04:00:22.798Z,99.90
2023-05-13T04:02:51.771Z,99.90
2023-05-13T04:05:20.068Z,99.90
2023-05-13T04:07:48.026Z,99.90
2023-05-13T04:10:17.359Z,99.90
2023-05-13T04:12:45.407Z,99.90
2023-05-13T04:15:13.295Z,99.90
2023-05-13T04:17:41.723Z,99.90
2023-05-13T04:20:10.562Z,99.90
2023-05-13T04:22:38.712Z,99.90
2023-05-13T04:25:07.319Z,99.90
2023-05-13T04:27:37.136Z,99.90
2023-05-13T04:30:12.516Z,99.90
2023-05-13T04:32:45.277Z,99.90
2023-05-13T04:35:14.431Z,99.90
2023-05-13T04:37:45.452Z,99.90
2023-05-13T04:40:16.319Z,99.90
2023-05-13T04:42:45.844Z,99.90
2023-05-13T04:45:14.201Z,99.90
2023-05-13T04:47:43.089Z,99.90
2023-05-13T04:50:11.865Z,99.90
2023-05-13T04:52:42.827Z,99.90
2023-05-13T04:55:12.351Z,99.90
2023-05-13T04:57:40.533Z,99.90
2023-05-13T05:00:12.047Z,99.90
2023-05-13T05:02:42.121Z,99.90
2023-05-13T05:05:10.780Z,99.90
2023-05-13T05:07:40.618Z,99.90
2023-05-13T05:10:10.140Z,99.90
2023-05-13T05:12:42.705Z,99.90
2023-05-13T05:15:15.851Z,99.90
2023-05-13T05:17:46.181Z,99.90
2023-05-13T05:20:14.490Z,98.50
2023-05-13T05:22:42.852Z,97.10
2023-05-13T05:25:13.076Z,95.90
2023-05-13T05:27:42.626Z,93.40
2023-05-13T05:30:13.554Z,92.00
2023-05-13T05:32:41.844Z,90.50
2023-05-13T05:35:10.728Z,90.20
2023-05-13T05:37:40.142Z,85.20
2023-05-13T05:40:09.699Z,78.50
2023-05-13T05:42:40.763Z,74.40
2023-05-13T05:45:11.235Z,70.40
2023-05-13T05:47:39.768Z,71.40
2023-05-13T05:50:08.865Z,67.70
2023-05-13T05:52:36.836Z,68.90
2023-05-13T05:55:07.127Z,69.40
2023-05-13T05:57:35.030Z,68.00
2023-05-13T06:00:03.669Z,69.90
2023-05-13T06:02:33.559Z,66.40
2023-05-13T06:05:05.338Z,66.60
2023-05-13T06:07:33.202Z,61.90
2023-05-13T06:10:01.118Z,64.60
2023-05-13T06:12:29.168Z,62.80
2023-05-13T06:14:57.567Z,61.90
2023-05-13T06:17:25.689Z,66.20
2023-05-13T06:19:55.096Z,62.20
2023-05-13T06:22:23.058Z,60.70
2023-05-13T06:24:51.019Z,59.10
2023-05-13T06:27:19.036Z,58.40
2023-05-13T06:29:46.945Z,58.40
2023-05-13T06:32:15.161Z,58.50
2023-05-13T06:34:45.790Z,57.60
2023-05-13T06:37:15.522Z,58.70
2023-05-13T06:39:43.342Z,59.00
2023-05-13T06:42:14.090Z,57.80
2023-05-13T06:44:45.899Z,57.30
2023-05-13T06:47:16.406Z,58.30
2023-05-13T06:49:44.861Z,59.00
2023-05-13T06:52:12.958Z,61.30
2023-05-13T06:54:42.261Z,59.90
2023-05-13T06:57:10.363Z,58.20
2023-05-13T06:59:38.191Z,58.50
2023-05-13T07:02:09.726Z,57.50
2023-05-13T07:04:38.062Z,57.90
2023-05-13T07:07:06.431Z,57.40
2023-05-13T07:09:34.574Z,57.20
2023-05-13T07:12:03.922Z,55.50
2023-05-13T07:14:32.128Z,55.80
2023-05-13T07:16:59.954Z,56.00
2023-05-13T07:19:27.894Z,57.20
2023-05-13T07:21:55.977Z,58.70
2023-05-13T07:24:23.902Z,60.00
2023-05-13T07:26:51.710Z,61.10
2023-05-13T07:29:20.949Z,59.30
2023-05-13T07:31:48.850Z,60.80
2023-05-13T07:34:16.877Z,58.20
2023-05-13T07:36:44.839Z,58.10
2023-05-13T07:39:12.845Z,55.90
2023-05-13T07:41:40.695Z,55.70
2023-05-13T07:44:12.978Z,56.80
2023-05-13T07:46:42.556Z,57.40
2023-05-13T07:49:10.594Z,54.80
2023-05-13T07:51:38.660Z,55.40
2023-05-13T07:54:06.533Z,55.70
2023-05-13T07:56:34.507Z,55.20
2023-05-13T07:59:02.405Z,56.60
2023-05-13T08:01:30.627Z,56.50
2023-05-13T08:04:00.004Z,57.50
2023-05-13T08:06:28.217Z,60.60
2023-05-13T08:08:56.039Z,60.60
2023-05-13T08:11:23.898Z,58.50
2023-05-13T08:13:51.794Z,55.80
2023-05-13T08:16:19.718Z,56.00
2023-05-13T08:18:47.812Z,55.30
2023-05-13T08:21:17.381Z,54.70
2023-05-13T08:23:46.267Z,56.70
2023-05-13T08:26:14.431Z,54.60
2023-05-13T08:28:42.782Z,56.60
2023-05-13T08:31:12.631Z,58.30
2023-05-13T08:33:41.695Z,56.50
2023-05-13T08:36:10.994Z,55.50
2023-05-13T08:38:40.205Z,54.00
2023-05-13T08:41:08.137Z,56.30
2023-05-13T08:43:40.085Z,54.20
2023-05-13T08:46:11.161Z,55.80
2023-05-13T08:48:40.306Z,57.50
2023-05-13T08:51:09.088Z,58.00
2023-05-13T08:53:39.563Z,61.10
2023-05-13T08:56:10.191Z,59.60
2023-05-13T08:58:38.026Z,59.90
2023-05-13T09:01:07.946Z,58.80
2023-05-13T09:03:36.990Z,59.30
2023-05-13T09:06:05.452Z,59.10
2023-05-13T09:08:33.819Z,58.00
2023-05-13T09:11:01.918Z,57.60
2023-05-13T09:13:31.141Z,57.30
2023-05-13T09:15:59.466Z,59.20
2023-05-13T09:18:31.650Z,59.50
2023-05-13T09:20:59.695Z,63.40
2023-05-13T09:23:28.167Z,65.30
2023-05-13T09:25:55.972Z,65.80
2023-05-13T09:28:24.299Z,65.90
2023-05-13T09:30:57.583Z,64.30
2023-05-13T09:33:31.567Z,63.80
2023-05-13T09:35:59.723Z,65.10
2023-05-13T09:38:31.562Z,66.30
2023-05-13T09:41:00.759Z,66.10
2023-05-13T09:43:32.494Z,65.00
2023-05-13T09:46:04.565Z,60.20
2023-05-13T09:48:34.543Z,60.10
2023-05-13T09:51:02.611Z,57.70
2023-05-13T09:53:30.929Z,59.80
2023-05-13T09:56:00.329Z,60.50
2023-05-13T09:58:30.688Z,60.40
2023-05-13T10:00:59.760Z,60.20
2023-05-13T10:03:31.308Z,64.30
2023-05-13T10:06:03.248Z,65.90
2023-05-13T10:08:31.758Z,70.30
2023-05-13T10:11:00.547Z,73.30
2023-05-13T10:13:31.946Z,72.90
2023-05-13T10:16:00.579Z,75.60
2023-05-13T10:18:29.918Z,72.90
2023-05-13T10:20:58.488Z,72.60
2023-05-13T10:23:27.229Z,69.20
2023-05-13T10:25:56.095Z,67.60
2023-05-13T10:28:26.346Z,67.20
2023-05-13T10:30:54.462Z,65.30
2023-05-13T10:33:23.096Z,65.80
2023-05-13T10:36:07.979Z,65.70
2023-05-13T10:38:51.483Z,66.70
2023-05-13T10:41:39.477Z,67.40
2023-05-13T10:44:12.266Z,69.60
2023-05-13T10:46:40.662Z,72.50
2023-05-13T10:49:15.718Z,73.60
2023-05-13T10:51:49.275Z,75.60
2023-05-13T10:54:21.185Z,76.90
2023-05-13T10:56:58.351Z,75.90
2023-05-13T10:59:30.379Z,76.20
2023-05-13T11:01:58.480Z,75.40
2023-05-13T11:04:26.377Z,76.20
2023-05-13T11:06:55.965Z,75.50
2023-05-13T11:09:32.109Z,77.60
2023-05-13T11:12:01.217Z,76.10
2023-05-13T11:14:32.136Z,72.60
2023-05-13T11:17:10.419Z,71.40
2023-05-13T11:19:40.141Z,72.00
2023-05-13T11:22:13.252Z,71.90
2023-05-13T11:24:42.173Z,71.90
2023-05-13T11:27:17.675Z,72.40
2023-05-13T11:29:53.055Z,73.10
2023-05-13T11:32:53.610Z,74.40
2023-05-13T11:35:22.047Z,76.90
2023-05-13T11:37:51.451Z,74.10
2023-05-13T11:40:26.696Z,76.10
2023-05-13T11:42:55.315Z,77.40
2023-05-13T11:45:25.291Z,78.60
2023-05-13T11:47:54.142Z,77.70
2023-05-13T11:50:22.889Z,80.20
2023-05-13T11:52:56.281Z,79.10
2023-05-13T11:55:29.576Z,77.40
2023-05-13T11:57:58.248Z,78.30
2023-05-13T12:00:27.302Z,75.90
2023-05-13T12:02:55.973Z,74.20
2023-05-13T12:05:24.543Z,74.00
2023-05-13T12:07:53.211Z,74.60
2023-05-13T12:10:24.668Z,75.90
2023-05-13T12:12:53.070Z,77.80
2023-05-13T12:15:23.407Z,77.80
2023-05-13T12:17:51.877Z,77.40
2023-05-13T12:20:21.490Z,76.40
2023-05-13T12:22:56.799Z,76.80
2023-05-13T12:25:39.173Z,80.00
2023-05-13T12:28:11.882Z,78.20
2023-05-13T12:30:41.487Z,80.50
2023-05-13T12:33:14.873Z,82.30
2023-05-13T12:35:42.920Z,86.40
2023-05-13T12:38:16.887Z,84.60
2023-05-13T12:40:46.924Z,85.10
2023-05-13T12:43:15.462Z,87.50
2023-05-13T12:45:45.361Z,86.30
2023-05-13T12:48:14.433Z,85.20
2023-05-13T12:50:42.414Z,88.80
2023-05-13T12:53:10.267Z,87.50
2023-05-13T12:55:40.161Z,88.30
2023-05-13T12:58:13.203Z,88.60
2023-05-13T13:00:41.387Z,87.30
2023-05-13T13:03:09.752Z,87.50
2023-05-13T13:05:37.835Z,87.40
2023-05-13T13:08:06.291Z,84.80
2023-05-13T13:10:34.860Z,86.70
2023-05-13T13:13:03.074Z,86.60
2023-05-13T13:15:32.290Z,87.80
2023-05-13T13:18:00.244Z,86.10
2023-05-13T13:20:28.177Z,85.50
2023-05-13T13:22:55.984Z,86.40
2023-05-13T13:25:24.134Z,88.70
2023-05-13T13:27:52.287Z,88.00
2023-05-13T13:30:20.295Z,85.00
2023-05-13T13:32:49.573Z,86.70
2023-05-13T13:35:17.894Z,86.90
2023-05-13T13:37:45.757Z,85.60
2023-05-13T13:40:14.651Z,85.10
2023-05-13T13:42:44.752Z,85.80
2023-05-13T13:45:14.007Z,86.60
2023-05-13T13:47:42.473Z,87.20
2023-05-13T13:50:12.863Z,89.30
2023-05-13T13:52:40.814Z,90.00
2023-05-13T13:55:11.540Z,89.60
2023-05-13T13:57:39.654Z,90.80
2023-05-13T14:00:09.083Z,91.30
2023-05-13T14:02:37.112Z,90.50
2023-05-13T14:05:05.724Z,90.80
2023-05-13T14:07:35.131Z,91.80
2023-05-13T14:10:03.384Z,91.50
2023-05-13T14:12:31.246Z,91.70
2023-05-13T14:14:59.919Z,92.00
2023-05-13T14:17:27.986Z,91.80
2023-05-13T14:19:56.104Z,91.50
2023-05-13T14:22:24.342Z,91.90
2023-05-13T14:24:54.286Z,93.40
2023-05-13T14:27:24.477Z,93.90
2023-05-13T14:29:52.853Z,95.00
2023-05-13T14:32:20.710Z,96.50
2023-05-13T14:34:48.534Z,95.80
2023-05-13T14:37:16.511Z,96.90
2023-05-13T14:39:44.385Z,99.90
2023-05-13T14:42:13.626Z,99.90
2023-05-13T14:44:42.359Z,98.70
2023-05-13T14:47:10.729Z,98.30
2023-05-13T14:49:38.730Z,97.50
2023-05-13T14:52:07.148Z,95.60
2023-05-13T14:54:38.041Z,96.50
2023-05-13T14:57:07.688Z,97.10
2023-05-13T14:59:36.986Z,97.90
2023-05-13T15:02:05.672Z,98.80
2023-05-13T15:04:33.525Z,99.90
2023-05-13T15:07:03.739Z,99.90
2023-05-13T15:09:31.616Z,99.90
2023-05-13T15:11:59.510Z,99.80
2023-05-13T15:14:28.273Z,99.90
2023-05-13T15:16:58.509Z,99.90
2023-05-13T15:19:26.652Z,99.90
2023-05-13T15:21:54.561Z,99.90
2023-05-13T15:24:22.451Z,99.90
2023-05-13T15:26:50.825Z,99.90
2023-05-13T15:29:18.708Z,99.90
2023-05-13T15:31:46.552Z,99.90
2023-05-13T15:34:15.833Z,99.90
2023-05-13T15:36:43.735Z,99.90
2023-05-13T15:39:11.962Z,99.90
2023-05-13T15:41:39.784Z,99.90
2023-05-13T15:44:07.696Z,99.90
2023-05-13T15:46:35.975Z,99.90
2023-05-13T15:49:04.155Z,99.90
2023-05-13T15:51:33.705Z,99.90
2023-05-13T15:54:01.810Z,99.90
2023-05-13T15:56:29.720Z,99.90
2023-05-13T15:58:57.587Z,99.90
2023-05-13T16:01:25.589Z,99.90
2023-05-13T16:03:53.571Z,99.90
2023-05-13T16:06:21.523Z,99.90
2023-05-13T16:08:50.712Z,99.90
2023-05-13T16:11:18.625Z,99.90
2023-05-13T16:13:46.473Z,99.90
2023-05-13T16:16:14.659Z,99.90
2023-05-13T16:18:43.206Z,99.90
2023-05-13T16:21:11.448Z,99.90
2023-05-13T16:23:39.329Z,99.90
2023-05-13T16:26:08.838Z,99.90
2023-05-13T16:28:36.771Z,99.90
2023-05-13T16:31:04.745Z,99.90
2023-05-13T16:33:33.735Z,99.90
2023-05-13T16:36:01.706Z,99.90
2023-05-13T16:38:30.423Z,99.90
2023-05-13T16:40:58.265Z,99.90
2023-05-13T16:43:27.500Z,99.90
2023-05-13T16:45:55.354Z,99.90
2023-05-13T16:48:23.281Z,99.90
2023-05-13T16:50:51.149Z,99.90
2023-05-13T16:53:22.201Z,99.90
2023-05-13T16:55:50.609Z,99.90
2023-05-13T16:58:18.561Z,99.90
2023-05-13T17:00:47.874Z,99.90
2023-05-13T17:03:16.200Z,99.90
2023-05-13T17:05:44.871Z,99.90
2023-05-13T17:08:12.715Z,99.90
2023-05-13T17:10:40.806Z,99.90
2023-05-13T17:13:08.720Z,99.90
2023-05-13T17:15:36.639Z,99.90
2023-05-13T17:18:06.014Z,99.90
2023-05-13T17:20:34.155Z,99.90
2023-05-13T17:23:02.023Z,99.90
2023-05-13T17:25:29.873Z,99.90
2023-05-13T17:27:57.818Z,99.90
2023-05-13T17:30:25.725Z,99.90
2023-05-13T17:32:53.851Z,99.90
2023-05-13T17:35:23.158Z,99.90
2023-05-13T17:37:55.258Z,99.90
2023-05-13T17:40:23.565Z,99.90
2023-05-13T17:42:52.827Z,99.90
2023-05-13T17:45:21.345Z,99.90
2023-05-13T17:47:49.265Z,99.90
2023-05-13T17:50:18.286Z,99.90
2023-05-13T17:52:47.650Z,99.90
2023-05-13T17:55:15.826Z,99.90
2023-05-13T17:57:43.992Z,99.90
2023-05-13T18:00:13.465Z,99.90
2023-05-13T18:02:41.442Z,99.90
2023-05-13T18:05:10.598Z,99.90
2023-05-13T18:07:38.772Z,99.90
2023-05-13T18:10:09.637Z,99.90
2023-05-13T18:12:37.734Z,99.90
2023-05-13T18:15:06.629Z,99.90
2023-05-13T18:17:34.643Z,99.90
2023-05-13T18:20:02.758Z,99.90
2023-05-13T18:22:30.790Z,99.90
2023-05-13T18:24:58.622Z,99.90
2023-05-13T18:27:27.928Z,99.90
2023-05-13T18:29:55.840Z,99.90
2023-05-13T18:32:23.767Z,99.90
2023-05-13T18:34:51.671Z,99.90
2023-05-13T18:37:19.767Z,99.90
2023-05-13T18:39:48.572Z,99.90
2023-05-13T18:42:16.588Z,99.90
2023-05-13T18:44:45.927Z,99.90
2023-05-13T18:47:13.746Z,99.90
2023-05-13T18:49:41.581Z,99.90
2023-05-13T18:52:09.466Z,99.90
2023-05-13T18:54:38.259Z,99.90
2023-05-13T18:57:06.794Z,99.90
2023-05-13T18:59:34.688Z,99.90
2023-05-13T19:02:04.121Z,99.90
2023-05-13T19:04:32.246Z,99.90
2023-05-13T19:07:00.236Z,99.90
2023-05-13T19:09:28.117Z,99.90
2023-05-13T19:11:55.959Z,99.90
2023-05-13T19:14:23.791Z,99.90
2023-05-13T19:16:51.852Z,99.90
2023-05-13T19:19:21.103Z,99.90
2023-05-13T19:21:48.980Z,99.90
2023-05-13T19:24:16.810Z,99.90
2023-05-13T19:26:44.762Z,99.90
2023-05-13T19:29:12.718Z,99.90
2023-05-13T19:31:40.808Z,99.90
2023-05-13T19:34:09.772Z,99.90
2023-05-13T19:36:38.999Z,99.90
2023-05-13T19:39:06.871Z,99.90
2023-05-13T19:41:35.052Z,99.90
2023-05-13T19:44:03.091Z,99.90
2023-05-13T19:46:31.122Z,99.90
2023-05-13T19:48:58.963Z,99.90
2023-05-13T19:51:27.585Z,99.90
2023-05-13T19:53:56.860Z,99.90
2023-05-13T19:56:24.868Z,99.90
2023-05-13T19:58:52.811Z,99.90
2023-05-13T20:01:20.767Z,99.90
2023-05-13T20:03:48.859Z,99.90
2023-05-13T20:06:16.768Z,99.90
2023-05-13T20:08:44.708Z,99.90
2023-05-13T20:11:14.171Z,99.90
2023-05-13T20:13:42.417Z,99.90
2023-05-13T20:16:10.315Z,99.90
2023-05-13T20:18:38.736Z,99.90
2023-05-13T20:21:06.865Z,99.90
2023-05-13T20:23:34.741Z,99.90
2023-05-13T20:26:02.605Z,99.90
2023-05-13T20:28:31.878Z,99.90
2023-05-13T20:31:02.921Z,99.90
2023-05-13T20:33:30.790Z,99.90
2023-05-13T20:35:58.834Z,99.90
2023-05-13T20:38:27.199Z,99.90
2023-05-13T20:40:55.162Z,99.90
2023-05-13T20:43:23.114Z,99.90
2023-05-13T20:45:52.432Z,99.90
2023-05-13T20:48:20.418Z,99.90
2023-05-13T20:50:48.324Z,99.90
2023-05-13T20:53:16.424Z,99.90
2023-05-13T20:55:44.347Z,99.90
2023-05-13T20:58:13.019Z,99.90
2023-05-13T21:00:41.552Z,99.90
2023-05-13T21:03:11.561Z,99.90
2023-05-13T21:05:39.744Z,99.90
2023-05-13T21:08:07.639Z,99.90
2023-05-13T21:10:35.622Z,99.90
2023-05-13T21:13:03.682Z,99.90
2023-05-13T21:15:31.757Z,99.90
2023-05-13T21:17:59.686Z,99.90
2023-05-13T21:20:29.115Z,99.90
2023-05-13T21:22:57.040Z,99.90
2023-05-13T21:25:24.981Z,99.90
2023-05-13T21:27:52.899Z,99.90
2023-05-13T21:30:21.213Z,99.90
2023-05-13T21:32:49.280Z,99.90
2023-05-13T21:35:17.602Z,99.90
2023-05-13T21:37:47.465Z,99.90
2023-05-13T21:40:15.859Z,99.90
2023-05-13T21:42:43.997Z,99.90
2023-05-13T21:45:13.317Z,99.90
2023-05-13T21:47:41.717Z,99.90
2023-05-13T21:50:11.896Z,99.90
2023-05-13T21:52:40.050Z,99.90
2023-05-13T21:55:11.768Z,99.90
2023-05-13T21:57:39.702Z,99.90
2023-05-13T22:00:10.661Z,99.90
2023-05-13T22:02:44.032Z,99.90
2023-05-13T22:05:12.114Z,99.90
2023-05-13T22:07:40.130Z,99.90
2023-05-13T22:10:09.091Z,99.90
2023-05-13T22:12:38.667Z,99.90
2023-05-13T22:15:07.858Z,99.90
2023-05-13T22:17:35.960Z,99.90
2023-05-13T22:20:03.892Z,99.90
2023-05-13T22:22:31.783Z,99.90
2023-05-13T22:24:59.605Z,99.90
2023-05-13T22:27:27.607Z,99.90
2023-05-13T22:29:56.925Z,99.90
2023-05-13T22:32:24.916Z,99.90
2023-05-13T22:34:52.979Z,99.90
2023-05-13T22:37:20.839Z,99.90
2023-05-13T22:39:48.847Z,99.90
2023-05-13T22:42:16.758Z,99.90
2023-05-13T22:44:45.031Z,99.90
2023-05-13T22:47:14.351Z,99.90
2023-05-13T22:49:42.192Z,99.90
2023-05-13T22:52:10.210Z,99.90
2023-05-13T22:54:38.350Z,99.90
2023-05-13T22:57:06.782Z,99.90
2023-05-13T22:59:34.712Z,99.90
2023-05-13T23:02:02.640Z,99.90
2023-05-13T23:04:32.055Z,99.90
2023-05-13T23:07:00.003Z,99.90
2023-05-13T23:09:27.899Z,99.90
2023-05-13T23:11:55.752Z,99.90
2023-05-13T23:14:25.239Z,99.90
2023-05-13T23:16:53.073Z,99.90
2023-05-13T23:19:20.926Z,99.90
2023-05-13T23:21:50.197Z,99.90
2023-05-13T23:24:18.404Z,99.90
2023-05-13T23:26:47.563Z,99.90
2023-05-13T23:29:15.517Z,99.90
2023-05-13T23:31:43.629Z,99.90
2023-05-13T23:34:11.455Z,99.90
2023-05-13T23:36:39.377Z,99.90
2023-05-13T23:39:09.759Z,99.90
2023-05-13T23:41:37.714Z,99.90
2023-05-13T23:44:05.929Z,99.90
2023-05-13T23:46:33.798Z,99.90
2023-05-13T23:49:01.597Z,99.90
2023-05-13T23:51:29.446Z,99.90
2023-05-13T23:53:57.291Z,99.90
2023-05-13T23:56:26.536Z,99.90
2023-05-13T23:58:54.372Z,99.90
